sensor_id;sensor_type;location;lat;lon;timestamp;P1;durP1;ratioP1;P2;durP2;ratioP2
48552;SDS011;34335;51.566;6.994;2024-03-07T00:01:04;21.17;;;10.83;;
48552;SDS011;34335;51.566;6.994;2024-03-07T00:03:29;24.83;;;11.43;;
48552;SDS011;34335;51.566;6.994;2024-03-07T00:05:55;22.93;;;10.30;;
48552;SDS011;34335;51.566;6.994;2024-03-07T00:08:20;20.05;;;10.43;;
48552;SDS011;34335;51.566;6.994;2024-03-07T00:10:46;29.50;;;11.98;;
48552;SDS011;34335;51.566;6.994;2024-03-07T00:13:11;25.45;;;11.25;;
48552;SDS011;34335;51.566;6.994;2024-03-07T00:15:38;28.77;;;12.15;;
48552;SDS011;34335;51.566;6.994;2024-03-07T00:18:05;27.88;;;12.32;;
48552;SDS011;34335;51.566;6.994;2024-03-07T00:20:30;23.98;;;11.70;;
48552;SDS011;34335;51.566;6.994;2024-03-07T00:22:56;24.77;;;11.33;;
48552;SDS011;34335;51.566;6.994;2024-03-07T00:25:22;24.42;;;10.88;;
48552;SDS011;34335;51.566;6.994;2024-03-07T00:27:47;33.38;;;12.55;;
48552;SDS011;34335;51.566;6.994;2024-03-07T00:30:13;25.58;;;10.85;;
48552;SDS011;34335;51.566;6.994;2024-03-07T00:32:39;26.90;;;12.63;;
48552;SDS011;34335;51.566;6.994;2024-03-07T00:35:05;27.63;;;13.07;;
48552;SDS011;34335;51.566;6.994;2024-03-07T00:37:33;31.80;;;13.07;;
48552;SDS011;34335;51.566;6.994;2024-03-07T00:39:59;32.92;;;12.98;;
48552;SDS011;34335;51.566;6.994;2024-03-07T00:42:24;27.85;;;12.35;;
48552;SDS011;34335;51.566;6.994;2024-03-07T00:44:49;27.98;;;12.27;;
48552;SDS011;34335;51.566;6.994;2024-03-07T00:47:15;28.08;;;11.23;;
48552;SDS011;34335;51.566;6.994;2024-03-07T00:49:42;26.88;;;10.90;;
48552;SDS011;34335;51.566;6.994;2024-03-07T00:52:08;23.38;;;10.63;;
48552;SDS011;34335;51.566;6.994;2024-03-07T00:54:33;22.20;;;11.30;;
48552;SDS011;34335;51.566;6.994;2024-03-07T00:56:59;32.83;;;12.18;;
48552;SDS011;34335;51.566;6.994;2024-03-07T00:59:25;26.83;;;12.07;;
48552;SDS011;34335;51.566;6.994;2024-03-07T01:01:50;26.52;;;11.88;;
48552;SDS011;34335;51.566;6.994;2024-03-07T01:04:15;28.90;;;11.65;;
48552;SDS011;34335;51.566;6.994;2024-03-07T01:06:41;30.13;;;11.50;;
48552;SDS011;34335;51.566;6.994;2024-03-07T01:09:06;27.13;;;11.77;;
48552;SDS011;34335;51.566;6.994;2024-03-07T01:11:39;30.00;;;12.73;;
48552;SDS011;34335;51.566;6.994;2024-03-07T01:14:04;31.20;;;12.18;;
48552;SDS011;34335;51.566;6.994;2024-03-07T01:16:29;29.77;;;12.80;;
48552;SDS011;34335;51.566;6.994;2024-03-07T01:18:55;28.35;;;13.50;;
48552;SDS011;34335;51.566;6.994;2024-03-07T01:21:20;36.23;;;16.57;;
48552;SDS011;34335;51.566;6.994;2024-03-07T01:23:45;38.17;;;14.27;;
48552;SDS011;34335;51.566;6.994;2024-03-07T01:26:11;39.28;;;15.48;;
48552;SDS011;34335;51.566;6.994;2024-03-07T01:28:37;28.52;;;15.02;;
48552;SDS011;34335;51.566;6.994;2024-03-07T01:31:02;43.30;;;17.52;;
48552;SDS011;34335;51.566;6.994;2024-03-07T01:33:28;38.70;;;16.17;;
48552;SDS011;34335;51.566;6.994;2024-03-07T01:35:53;37.33;;;16.55;;
48552;SDS011;34335;51.566;6.994;2024-03-07T01:38:18;34.73;;;18.03;;
48552;SDS011;34335;51.566;6.994;2024-03-07T01:40:44;40.60;;;17.20;;
48552;SDS011;34335;51.566;6.994;2024-03-07T01:43:09;36.65;;;18.33;;
48552;SDS011;34335;51.566;6.994;2024-03-07T01:45:35;34.70;;;16.15;;
48552;SDS011;34335;51.566;6.994;2024-03-07T01:48:05;35.17;;;18.20;;
48552;SDS011;34335;51.566;6.994;2024-03-07T01:50:30;38.75;;;17.77;;
48552;SDS011;34335;51.566;6.994;2024-03-07T01:52:56;38.53;;;17.98;;
48552;SDS011;34335;51.566;6.994;2024-03-07T01:55:22;41.20;;;18.05;;
48552;SDS011;34335;51.566;6.994;2024-03-07T01:57:48;33.28;;;17.70;;
48552;SDS011;34335;51.566;6.994;2024-03-07T02:00:14;39.95;;;17.40;;
48552;SDS011;34335;51.566;6.994;2024-03-07T02:02:39;40.05;;;17.45;;
48552;SDS011;34335;51.566;6.994;2024-03-07T02:05:05;36.28;;;17.52;;
48552;SDS011;34335;51.566;6.994;2024-03-07T02:07:31;33.22;;;16.55;;
48552;SDS011;34335;51.566;6.994;2024-03-07T02:10:03;36.30;;;17.55;;
48552;SDS011;34335;51.566;6.994;2024-03-07T02:12:29;33.95;;;17.05;;
48552;SDS011;34335;51.566;6.994;2024-03-07T02:14:54;37.92;;;16.35;;
48552;SDS011;34335;51.566;6.994;2024-03-07T02:17:21;38.97;;;18.30;;
48552;SDS011;34335;51.566;6.994;2024-03-07T02:19:46;36.17;;;16.98;;
48552;SDS011;34335;51.566;6.994;2024-03-07T02:22:11;35.47;;;17.73;;
48552;SDS011;34335;51.566;6.994;2024-03-07T02:24:37;38.40;;;16.17;;
48552;SDS011;34335;51.566;6.994;2024-03-07T02:27:02;34.53;;;16.30;;
48552;SDS011;34335;51.566;6.994;2024-03-07T02:29:28;35.13;;;16.52;;
48552;SDS011;34335;51.566;6.994;2024-03-07T02:31:55;38.03;;;16.35;;
48552;SDS011;34335;51.566;6.994;2024-03-07T02:34:20;33.65;;;16.55;;
48552;SDS011;34335;51.566;6.994;2024-03-07T02:36:46;35.30;;;17.05;;
48552;SDS011;34335;51.566;6.994;2024-03-07T02:39:11;34.07;;;15.43;;
48552;SDS011;34335;51.566;6.994;2024-03-07T02:41:36;36.22;;;15.45;;
48552;SDS011;34335;51.566;6.994;2024-03-07T02:44:02;33.70;;;16.55;;
48552;SDS011;34335;51.566;6.994;2024-03-07T02:46:29;37.35;;;15.43;;
48552;SDS011;34335;51.566;6.994;2024-03-07T02:48:54;31.65;;;16.33;;
48552;SDS011;34335;51.566;6.994;2024-03-07T02:51:19;35.25;;;16.25;;
48552;SDS011;34335;51.566;6.994;2024-03-07T02:53:45;34.38;;;15.75;;
48552;SDS011;34335;51.566;6.994;2024-03-07T02:56:10;37.17;;;15.73;;
48552;SDS011;34335;51.566;6.994;2024-03-07T02:58:36;37.22;;;16.55;;
48552;SDS011;34335;51.566;6.994;2024-03-07T03:01:01;31.70;;;14.45;;
48552;SDS011;34335;51.566;6.994;2024-03-07T03:03:28;30.70;;;15.23;;
48552;SDS011;34335;51.566;6.994;2024-03-07T03:05:56;32.00;;;15.55;;
48552;SDS011;34335;51.566;6.994;2024-03-07T03:08:21;36.42;;;17.15;;
48552;SDS011;34335;51.566;6.994;2024-03-07T03:10:47;32.95;;;15.95;;
48552;SDS011;34335;51.566;6.994;2024-03-07T03:13:12;35.78;;;15.27;;
48552;SDS011;34335;51.566;6.994;2024-03-07T03:15:38;34.72;;;14.98;;
48552;SDS011;34335;51.566;6.994;2024-03-07T03:18:04;29.73;;;14.17;;
48552;SDS011;34335;51.566;6.994;2024-03-07T03:20:30;28.23;;;14.10;;
48552;SDS011;34335;51.566;6.994;2024-03-07T03:22:59;30.48;;;13.95;;
48552;SDS011;34335;51.566;6.994;2024-03-07T03:25:25;30.42;;;15.02;;
48552;SDS011;34335;51.566;6.994;2024-03-07T03:27:51;35.95;;;15.82;;
48552;SDS011;34335;51.566;6.994;2024-03-07T03:30:17;36.72;;;15.93;;
48552;SDS011;34335;51.566;6.994;2024-03-07T03:32:46;34.63;;;14.63;;
48552;SDS011;34335;51.566;6.994;2024-03-07T03:35:12;37.55;;;15.60;;
48552;SDS011;34335;51.566;6.994;2024-03-07T03:37:42;31.33;;;14.05;;
48552;SDS011;34335;51.566;6.994;2024-03-07T03:40:08;32.17;;;14.52;;
48552;SDS011;34335;51.566;6.994;2024-03-07T03:42:35;29.80;;;14.65;;
48552;SDS011;34335;51.566;6.994;2024-03-07T03:45:01;38.03;;;14.65;;
48552;SDS011;34335;51.566;6.994;2024-03-07T03:47:28;30.85;;;14.13;;
48552;SDS011;34335;51.566;6.994;2024-03-07T03:49:53;32.33;;;15.57;;
48552;SDS011;34335;51.566;6.994;2024-03-07T03:52:19;32.27;;;15.17;;
48552;SDS011;34335;51.566;6.994;2024-03-07T03:54:44;34.77;;;15.60;;
48552;SDS011;34335;51.566;6.994;2024-03-07T03:57:09;32.40;;;15.15;;
48552;SDS011;34335;51.566;6.994;2024-03-07T03:59:34;32.57;;;15.70;;
48552;SDS011;34335;51.566;6.994;2024-03-07T04:02:00;35.13;;;16.67;;
48552;SDS011;34335;51.566;6.994;2024-03-07T04:04:25;31.07;;;14.80;;
48552;SDS011;34335;51.566;6.994;2024-03-07T04:06:50;31.50;;;15.00;;
48552;SDS011;34335;51.566;6.994;2024-03-07T04:09:16;31.25;;;15.90;;
48552;SDS011;34335;51.566;6.994;2024-03-07T04:11:44;38.15;;;15.65;;
48552;SDS011;34335;51.566;6.994;2024-03-07T04:14:10;32.22;;;14.75;;
48552;SDS011;34335;51.566;6.994;2024-03-07T04:16:35;28.13;;;13.43;;
48552;SDS011;34335;51.566;6.994;2024-03-07T04:19:00;33.33;;;14.60;;
48552;SDS011;34335;51.566;6.994;2024-03-07T04:21:26;26.77;;;15.10;;
48552;SDS011;34335;51.566;6.994;2024-03-07T04:23:51;27.65;;;12.90;;
48552;SDS011;34335;51.566;6.994;2024-03-07T04:26:16;25.90;;;12.75;;
48552;SDS011;34335;51.566;6.994;2024-03-07T04:28:42;32.80;;;14.10;;
48552;SDS011;34335;51.566;6.994;2024-03-07T04:31:07;27.95;;;14.20;;
48552;SDS011;34335;51.566;6.994;2024-03-07T04:33:32;31.30;;;14.20;;
48552;SDS011;34335;51.566;6.994;2024-03-07T04:35:57;35.13;;;17.20;;
48552;SDS011;34335;51.566;6.994;2024-03-07T04:38:25;29.33;;;15.70;;
48552;SDS011;34335;51.566;6.994;2024-03-07T04:40:53;42.65;;;16.63;;
48552;SDS011;34335;51.566;6.994;2024-03-07T04:43:18;37.65;;;15.13;;
48552;SDS011;34335;51.566;6.994;2024-03-07T04:45:44;31.65;;;14.10;;
48552;SDS011;34335;51.566;6.994;2024-03-07T04:48:10;31.60;;;15.55;;
48552;SDS011;34335;51.566;6.994;2024-03-07T04:50:35;28.17;;;14.43;;
48552;SDS011;34335;51.566;6.994;2024-03-07T04:53:01;32.00;;;14.60;;
48552;SDS011;34335;51.566;6.994;2024-03-07T04:55:27;31.70;;;15.15;;
48552;SDS011;34335;51.566;6.994;2024-03-07T04:57:52;32.92;;;14.57;;
48552;SDS011;34335;51.566;6.994;2024-03-07T05:00:17;29.38;;;12.88;;
48552;SDS011;34335;51.566;6.994;2024-03-07T05:02:45;31.77;;;13.77;;
48552;SDS011;34335;51.566;6.994;2024-03-07T05:05:17;29.27;;;13.80;;
48552;SDS011;34335;51.566;6.994;2024-03-07T05:07:47;36.70;;;14.85;;
48552;SDS011;34335;51.566;6.994;2024-03-07T05:10:14;33.55;;;15.30;;
48552;SDS011;34335;51.566;6.994;2024-03-07T05:12:40;30.70;;;14.82;;
48552;SDS011;34335;51.566;6.994;2024-03-07T05:15:05;29.88;;;13.68;;
48552;SDS011;34335;51.566;6.994;2024-03-07T05:17:31;31.10;;;14.95;;
48552;SDS011;34335;51.566;6.994;2024-03-07T05:19:59;27.83;;;14.80;;
48552;SDS011;34335;51.566;6.994;2024-03-07T05:22:25;28.33;;;13.10;;
48552;SDS011;34335;51.566;6.994;2024-03-07T05:24:51;28.38;;;12.77;;
48552;SDS011;34335;51.566;6.994;2024-03-07T05:27:16;25.80;;;12.88;;
48552;SDS011;34335;51.566;6.994;2024-03-07T05:29:41;28.95;;;13.85;;
48552;SDS011;34335;51.566;6.994;2024-03-07T05:32:19;31.48;;;12.07;;
48552;SDS011;34335;51.566;6.994;2024-03-07T05:34:49;21.23;;;10.80;;
48552;SDS011;34335;51.566;6.994;2024-03-07T05:37:14;26.25;;;13.13;;
48552;SDS011;34335;51.566;6.994;2024-03-07T05:39:39;28.38;;;14.13;;
48552;SDS011;34335;51.566;6.994;2024-03-07T05:42:05;28.00;;;12.90;;
48552;SDS011;34335;51.566;6.994;2024-03-07T05:44:32;30.13;;;13.82;;
48552;SDS011;34335;51.566;6.994;2024-03-07T05:46:57;26.05;;;11.43;;
48552;SDS011;34335;51.566;6.994;2024-03-07T05:49:23;29.83;;;14.48;;
48552;SDS011;34335;51.566;6.994;2024-03-07T05:51:48;53.90;;;16.00;;
48552;SDS011;34335;51.566;6.994;2024-03-07T05:54:14;39.85;;;13.95;;
48552;SDS011;34335;51.566;6.994;2024-03-07T05:56:39;36.25;;;13.60;;
48552;SDS011;34335;51.566;6.994;2024-03-07T05:59:06;33.30;;;14.02;;
48552;SDS011;34335;51.566;6.994;2024-03-07T06:01:32;32.45;;;15.77;;
48552;SDS011;34335;51.566;6.994;2024-03-07T06:04:01;33.60;;;13.73;;
48552;SDS011;34335;51.566;6.994;2024-03-07T06:06:28;37.72;;;14.20;;
48552;SDS011;34335;51.566;6.994;2024-03-07T06:08:56;28.95;;;13.60;;
48552;SDS011;34335;51.566;6.994;2024-03-07T06:11:22;30.55;;;14.02;;
48552;SDS011;34335;51.566;6.994;2024-03-07T06:13:48;33.85;;;15.23;;
48552;SDS011;34335;51.566;6.994;2024-03-07T06:16:13;28.50;;;13.68;;
48552;SDS011;34335;51.566;6.994;2024-03-07T06:18:40;23.50;;;12.63;;
48552;SDS011;34335;51.566;6.994;2024-03-07T06:21:08;31.55;;;13.35;;
48552;SDS011;34335;51.566;6.994;2024-03-07T06:23:34;29.10;;;14.43;;
48552;SDS011;34335;51.566;6.994;2024-03-07T06:25:59;31.45;;;13.85;;
48552;SDS011;34335;51.566;6.994;2024-03-07T06:28:25;29.73;;;14.40;;
48552;SDS011;34335;51.566;6.994;2024-03-07T06:30:53;29.10;;;13.98;;
48552;SDS011;34335;51.566;6.994;2024-03-07T06:33:20;34.78;;;14.32;;
48552;SDS011;34335;51.566;6.994;2024-03-07T06:35:45;27.95;;;13.73;;
48552;SDS011;34335;51.566;6.994;2024-03-07T06:38:11;29.70;;;14.05;;
48552;SDS011;34335;51.566;6.994;2024-03-07T06:40:36;26.38;;;13.68;;
48552;SDS011;34335;51.566;6.994;2024-03-07T06:43:03;28.38;;;12.75;;
48552;SDS011;34335;51.566;6.994;2024-03-07T06:45:29;28.00;;;11.70;;
48552;SDS011;34335;51.566;6.994;2024-03-07T06:47:55;30.55;;;13.70;;
48552;SDS011;34335;51.566;6.994;2024-03-07T06:50:20;24.13;;;12.43;;
48552;SDS011;34335;51.566;6.994;2024-03-07T06:52:46;30.98;;;13.20;;
48552;SDS011;34335;51.566;6.994;2024-03-07T06:55:14;29.48;;;12.82;;
48552;SDS011;34335;51.566;6.994;2024-03-07T06:57:41;31.17;;;14.38;;
48552;SDS011;34335;51.566;6.994;2024-03-07T07:00:07;29.27;;;13.32;;
48552;SDS011;34335;51.566;6.994;2024-03-07T07:02:39;25.08;;;12.77;;
48552;SDS011;34335;51.566;6.994;2024-03-07T07:05:05;28.85;;;13.18;;
48552;SDS011;34335;51.566;6.994;2024-03-07T07:07:37;28.90;;;13.25;;
48552;SDS011;34335;51.566;6.994;2024-03-07T07:10:03;31.85;;;13.32;;
48552;SDS011;34335;51.566;6.994;2024-03-07T07:12:29;27.90;;;13.20;;
48552;SDS011;34335;51.566;6.994;2024-03-07T07:14:55;27.80;;;11.50;;
48552;SDS011;34335;51.566;6.994;2024-03-07T07:17:20;26.83;;;11.23;;
48552;SDS011;34335;51.566;6.994;2024-03-07T07:19:45;27.25;;;13.85;;
48552;SDS011;34335;51.566;6.994;2024-03-07T07:22:11;26.23;;;13.57;;
48552;SDS011;34335;51.566;6.994;2024-03-07T07:24:37;24.52;;;11.77;;
48552;SDS011;34335;51.566;6.994;2024-03-07T07:27:03;27.50;;;12.32;;
48552;SDS011;34335;51.566;6.994;2024-03-07T07:29:28;30.95;;;14.18;;
48552;SDS011;34335;51.566;6.994;2024-03-07T07:31:53;22.77;;;11.32;;
48552;SDS011;34335;51.566;6.994;2024-03-07T07:34:20;20.25;;;8.82;;
48552;SDS011;34335;51.566;6.994;2024-03-07T07:36:45;24.27;;;13.13;;
48552;SDS011;34335;51.566;6.994;2024-03-07T07:39:11;25.40;;;11.73;;
48552;SDS011;34335;51.566;6.994;2024-03-07T07:41:42;24.00;;;11.07;;
48552;SDS011;34335;51.566;6.994;2024-03-07T07:44:07;29.58;;;13.93;;
48552;SDS011;34335;51.566;6.994;2024-03-07T07:46:33;18.42;;;7.97;;
48552;SDS011;34335;51.566;6.994;2024-03-07T07:48:59;24.90;;;12.98;;
48552;SDS011;34335;51.566;6.994;2024-03-07T07:51:25;18.88;;;8.18;;
48552;SDS011;34335;51.566;6.994;2024-03-07T07:53:51;19.15;;;9.65;;
48552;SDS011;34335;51.566;6.994;2024-03-07T07:56:19;24.83;;;11.45;;
48552;SDS011;34335;51.566;6.994;2024-03-07T07:58:44;20.83;;;10.27;;
48552;SDS011;34335;51.566;6.994;2024-03-07T08:01:09;25.75;;;12.80;;
48552;SDS011;34335;51.566;6.994;2024-03-07T08:03:35;23.60;;;11.77;;
48552;SDS011;34335;51.566;6.994;2024-03-07T08:06:00;20.92;;;11.82;;
48552;SDS011;34335;51.566;6.994;2024-03-07T08:08:26;17.00;;;9.70;;
48552;SDS011;34335;51.566;6.994;2024-03-07T08:10:51;22.97;;;9.97;;
48552;SDS011;34335;51.566;6.994;2024-03-07T08:13:16;29.85;;;12.15;;
48552;SDS011;34335;51.566;6.994;2024-03-07T08:15:42;21.50;;;10.85;;
48552;SDS011;34335;51.566;6.994;2024-03-07T08:18:07;24.48;;;10.98;;
48552;SDS011;34335;51.566;6.994;2024-03-07T08:20:35;19.25;;;9.93;;
48552;SDS011;34335;51.566;6.994;2024-03-07T08:23:01;18.73;;;9.52;;
48552;SDS011;34335;51.566;6.994;2024-03-07T08:25:27;20.85;;;8.38;;
48552;SDS011;34335;51.566;6.994;2024-03-07T08:27:54;16.42;;;7.70;;
48552;SDS011;34335;51.566;6.994;2024-03-07T08:30:21;14.77;;;6.80;;
48552;SDS011;34335;51.566;6.994;2024-03-07T08:32:57;17.58;;;7.88;;
48552;SDS011;34335;51.566;6.994;2024-03-07T08:35:23;18.30;;;6.88;;
48552;SDS011;34335;51.566;6.994;2024-03-07T08:37:50;13.38;;;6.32;;
48552;SDS011;34335;51.566;6.994;2024-03-07T08:40:20;19.42;;;7.63;;
48552;SDS011;34335;51.566;6.994;2024-03-07T08:42:46;21.65;;;8.00;;
48552;SDS011;34335;51.566;6.994;2024-03-07T08:45:12;14.27;;;6.95;;
48552;SDS011;34335;51.566;6.994;2024-03-07T08:47:42;12.20;;;6.80;;
48552;SDS011;34335;51.566;6.994;2024-03-07T08:50:08;19.63;;;8.13;;
48552;SDS011;34335;51.566;6.994;2024-03-07T08:52:33;19.38;;;6.03;;
48552;SDS011;34335;51.566;6.994;2024-03-07T08:55:01;16.00;;;6.53;;
48552;SDS011;34335;51.566;6.994;2024-03-07T08:57:27;17.10;;;7.85;;
48552;SDS011;34335;51.566;6.994;2024-03-07T08:59:53;14.93;;;7.20;;
48552;SDS011;34335;51.566;6.994;2024-03-07T09:02:18;18.20;;;8.90;;
48552;SDS011;34335;51.566;6.994;2024-03-07T09:04:43;13.70;;;6.95;;
48552;SDS011;34335;51.566;6.994;2024-03-07T09:07:09;18.73;;;7.47;;
48552;SDS011;34335;51.566;6.994;2024-03-07T09:09:34;21.58;;;6.97;;
48552;SDS011;34335;51.566;6.994;2024-03-07T09:12:00;16.15;;;6.45;;
48552;SDS011;34335;51.566;6.994;2024-03-07T09:14:27;12.48;;;6.97;;
48552;SDS011;34335;51.566;6.994;2024-03-07T09:16:52;15.63;;;7.35;;
48552;SDS011;34335;51.566;6.994;2024-03-07T09:19:18;13.57;;;5.38;;
48552;SDS011;34335;51.566;6.994;2024-03-07T09:21:48;13.77;;;6.18;;
48552;SDS011;34335;51.566;6.994;2024-03-07T09:24:15;13.55;;;6.72;;
48552;SDS011;34335;51.566;6.994;2024-03-07T09:26:41;13.05;;;6.22;;
48552;SDS011;34335;51.566;6.994;2024-03-07T09:29:06;14.30;;;7.07;;
48552;SDS011;34335;51.566;6.994;2024-03-07T09:31:31;12.07;;;6.33;;
48552;SDS011;34335;51.566;6.994;2024-03-07T09:33:57;15.10;;;6.10;;
48552;SDS011;34335;51.566;6.994;2024-03-07T09:36:23;11.48;;;5.82;;
48552;SDS011;34335;51.566;6.994;2024-03-07T09:38:51;14.10;;;7.32;;
48552;SDS011;34335;51.566;6.994;2024-03-07T09:41:18;18.42;;;7.13;;
48552;SDS011;34335;51.566;6.994;2024-03-07T09:43:43;12.48;;;7.25;;
48552;SDS011;34335;51.566;6.994;2024-03-07T09:46:12;15.32;;;5.15;;
48552;SDS011;34335;51.566;6.994;2024-03-07T09:48:38;13.38;;;5.32;;
48552;SDS011;34335;51.566;6.994;2024-03-07T09:51:04;12.15;;;6.00;;
48552;SDS011;34335;51.566;6.994;2024-03-07T09:53:32;14.38;;;6.65;;
48552;SDS011;34335;51.566;6.994;2024-03-07T09:55:59;15.77;;;7.75;;
48552;SDS011;34335;51.566;6.994;2024-03-07T09:58:25;13.05;;;6.32;;
48552;SDS011;34335;51.566;6.994;2024-03-07T10:00:52;17.17;;;6.85;;
48552;SDS011;34335;51.566;6.994;2024-03-07T10:03:20;12.32;;;5.93;;
48552;SDS011;34335;51.566;6.994;2024-03-07T10:05:47;11.40;;;5.68;;
48552;SDS011;34335;51.566;6.994;2024-03-07T10:08:12;19.77;;;7.80;;
48552;SDS011;34335;51.566;6.994;2024-03-07T10:10:38;16.55;;;6.85;;
48552;SDS011;34335;51.566;6.994;2024-03-07T10:13:04;10.98;;;5.50;;
48552;SDS011;34335;51.566;6.994;2024-03-07T10:15:30;12.98;;;5.20;;
48552;SDS011;34335;51.566;6.994;2024-03-07T10:17:57;10.57;;;4.03;;
48552;SDS011;34335;51.566;6.994;2024-03-07T10:20:22;15.20;;;6.72;;
48552;SDS011;34335;51.566;6.994;2024-03-07T10:22:49;14.13;;;6.07;;
48552;SDS011;34335;51.566;6.994;2024-03-07T10:25:16;10.43;;;3.50;;
48552;SDS011;34335;51.566;6.994;2024-03-07T10:27:43;14.60;;;5.68;;
48552;SDS011;34335;51.566;6.994;2024-03-07T10:30:09;7.38;;;3.78;;
48552;SDS011;34335;51.566;6.994;2024-03-07T10:32:35;9.65;;;5.07;;
48552;SDS011;34335;51.566;6.994;2024-03-07T10:35:01;12.18;;;5.32;;
48552;SDS011;34335;51.566;6.994;2024-03-07T10:37:28;13.80;;;5.53;;
48552;SDS011;34335;51.566;6.994;2024-03-07T10:39:53;11.82;;;6.00;;
48552;SDS011;34335;51.566;6.994;2024-03-07T10:42:19;9.63;;;5.18;;
48552;SDS011;34335;51.566;6.994;2024-03-07T10:44:47;15.57;;;8.32;;
48552;SDS011;34335;51.566;6.994;2024-03-07T10:47:15;13.77;;;5.45;;
48552;SDS011;34335;51.566;6.994;2024-03-07T10:49:45;16.38;;;6.00;;
48552;SDS011;34335;51.566;6.994;2024-03-07T10:52:20;10.80;;;4.90;;
48552;SDS011;34335;51.566;6.994;2024-03-07T10:57:50;15.32;;;7.15;;
48552;SDS011;34335;51.566;6.994;2024-03-07T11:00:23;12.43;;;5.50;;
48552;SDS011;34335;51.566;6.994;2024-03-07T11:03:08;9.43;;;4.10;;
48552;SDS011;34335;51.566;6.994;2024-03-07T11:05:34;11.98;;;5.93;;
48552;SDS011;34335;51.566;6.994;2024-03-07T11:08:01;12.93;;;5.95;;
48552;SDS011;34335;51.566;6.994;2024-03-07T11:10:30;14.40;;;6.68;;
48552;SDS011;34335;51.566;6.994;2024-03-07T11:12:55;12.73;;;7.45;;
48552;SDS011;34335;51.566;6.994;2024-03-07T11:15:23;15.05;;;6.72;;
48552;SDS011;34335;51.566;6.994;2024-03-07T11:17:52;13.25;;;6.88;;
48552;SDS011;34335;51.566;6.994;2024-03-07T11:20:23;15.25;;;7.70;;
48552;SDS011;34335;51.566;6.994;2024-03-07T11:22:49;12.98;;;6.80;;
48552;SDS011;34335;51.566;6.994;2024-03-07T11:25:19;11.43;;;5.43;;
48552;SDS011;34335;51.566;6.994;2024-03-07T11:27:54;18.98;;;6.00;;
48552;SDS011;34335;51.566;6.994;2024-03-07T11:30:21;13.02;;;6.75;;
48552;SDS011;34335;51.566;6.994;2024-03-07T11:32:50;16.30;;;8.00;;
48552;SDS011;34335;51.566;6.994;2024-03-07T11:35:20;12.23;;;6.80;;
48552;SDS011;34335;51.566;6.994;2024-03-07T11:38:00;7.50;;;4.65;;
48552;SDS011;34335;51.566;6.994;2024-03-07T11:42:54;10.97;;;6.10;;
48552;SDS011;34335;51.566;6.994;2024-03-07T11:45:24;12.25;;;6.30;;
48552;SDS011;34335;51.566;6.994;2024-03-07T11:47:49;12.75;;;6.05;;
48552;SDS011;34335;51.566;6.994;2024-03-07T11:50:32;13.63;;;7.85;;
48552;SDS011;34335;51.566;6.994;2024-03-07T11:53:00;10.95;;;4.35;;
48552;SDS011;34335;51.566;6.994;2024-03-07T11:55:26;14.77;;;6.43;;
48552;SDS011;34335;51.566;6.994;2024-03-07T11:58:06;11.05;;;6.43;;
48552;SDS011;34335;51.566;6.994;2024-03-07T12:00:33;13.70;;;7.22;;
48552;SDS011;34335;51.566;6.994;2024-03-07T12:03:00;9.70;;;6.05;;
48552;SDS011;34335;51.566;6.994;2024-03-07T12:05:25;8.18;;;4.50;;
48552;SDS011;34335;51.566;6.994;2024-03-07T12:07:52;9.40;;;3.72;;
48552;SDS011;34335;51.566;6.994;2024-03-07T12:10:17;7.65;;;4.25;;
48552;SDS011;34335;51.566;6.994;2024-03-07T12:12:49;10.32;;;4.82;;
48552;SDS011;34335;51.566;6.994;2024-03-07T12:15:15;11.85;;;5.53;;
48552;SDS011;34335;51.566;6.994;2024-03-07T12:17:44;13.25;;;6.20;;
48552;SDS011;34335;51.566;6.994;2024-03-07T12:20:11;12.75;;;7.72;;
48552;SDS011;34335;51.566;6.994;2024-03-07T12:23:01;12.02;;;6.05;;
48552;SDS011;34335;51.566;6.994;2024-03-07T12:25:31;13.88;;;6.18;;
48552;SDS011;34335;51.566;6.994;2024-03-07T12:30:36;17.42;;;5.95;;
48552;SDS011;34335;51.566;6.994;2024-03-07T12:33:13;9.50;;;4.07;;
48552;SDS011;34335;51.566;6.994;2024-03-07T12:35:48;9.15;;;4.28;;
48552;SDS011;34335;51.566;6.994;2024-03-07T12:38:15;14.10;;;7.38;;
48552;SDS011;34335;51.566;6.994;2024-03-07T12:40:42;10.60;;;6.65;;
48552;SDS011;34335;51.566;6.994;2024-03-07T12:43:15;13.68;;;5.57;;
48552;SDS011;34335;51.566;6.994;2024-03-07T12:45:43;13.68;;;6.88;;
48552;SDS011;34335;51.566;6.994;2024-03-07T12:48:15;9.30;;;3.90;;
48552;SDS011;34335;51.566;6.994;2024-03-07T12:50:41;12.25;;;6.68;;
48552;SDS011;34335;51.566;6.994;2024-03-07T12:53:10;10.88;;;6.25;;
48552;SDS011;34335;51.566;6.994;2024-03-07T12:55:37;14.88;;;7.07;;
48552;SDS011;34335;51.566;6.994;2024-03-07T12:58:08;6.10;;;3.25;;
48552;SDS011;34335;51.566;6.994;2024-03-07T13:00:35;10.80;;;5.68;;
48552;SDS011;34335;51.566;6.994;2024-03-07T13:03:00;9.73;;;5.78;;
48552;SDS011;34335;51.566;6.994;2024-03-07T13:05:26;9.98;;;5.63;;
48552;SDS011;34335;51.566;6.994;2024-03-07T13:07:51;8.77;;;4.97;;
48552;SDS011;34335;51.566;6.994;2024-03-07T13:10:17;11.55;;;6.80;;
48552;SDS011;34335;51.566;6.994;2024-03-07T13:12:46;8.27;;;4.72;;
48552;SDS011;34335;51.566;6.994;2024-03-07T13:15:14;10.32;;;5.25;;
48552;SDS011;34335;51.566;6.994;2024-03-07T13:17:40;12.93;;;6.95;;
48552;SDS011;34335;51.566;6.994;2024-03-07T13:20:08;11.13;;;6.35;;
48552;SDS011;34335;51.566;6.994;2024-03-07T13:22:42;9.55;;;5.03;;
48552;SDS011;34335;51.566;6.994;2024-03-07T13:25:12;12.75;;;5.40;;
48552;SDS011;34335;51.566;6.994;2024-03-07T13:27:41;8.75;;;4.75;;
48552;SDS011;34335;51.566;6.994;2024-03-07T13:30:09;11.27;;;5.45;;
48552;SDS011;34335;51.566;6.994;2024-03-07T13:32:38;10.98;;;5.82;;
48552;SDS011;34335;51.566;6.994;2024-03-07T13:35:03;9.63;;;5.23;;
48552;SDS011;34335;51.566;6.994;2024-03-07T13:37:29;9.82;;;4.68;;
48552;SDS011;34335;51.566;6.994;2024-03-07T13:39:58;12.52;;;6.07;;
48552;SDS011;34335;51.566;6.994;2024-03-07T13:42:24;9.05;;;4.45;;
48552;SDS011;34335;51.566;6.994;2024-03-07T13:44:49;5.80;;;2.77;;
48552;SDS011;34335;51.566;6.994;2024-03-07T13:47:15;8.90;;;5.00;;
48552;SDS011;34335;51.566;6.994;2024-03-07T13:49:41;8.32;;;4.72;;
48552;SDS011;34335;51.566;6.994;2024-03-07T13:52:07;9.88;;;5.40;;
48552;SDS011;34335;51.566;6.994;2024-03-07T13:54:43;7.82;;;4.78;;
48552;SDS011;34335;51.566;6.994;2024-03-07T13:59:56;9.80;;;5.57;;
48552;SDS011;34335;51.566;6.994;2024-03-07T14:08:00;5.07;;;2.80;;
48552;SDS011;34335;51.566;6.994;2024-03-07T14:16:04;6.50;;;3.97;;
48552;SDS011;34335;51.566;6.994;2024-03-07T14:21:54;9.68;;;4.47;;
48552;SDS011;34335;51.566;6.994;2024-03-07T14:25:03;8.48;;;3.63;;
48552;SDS011;34335;51.566;6.994;2024-03-07T14:27:42;6.90;;;4.03;;
48552;SDS011;34335;51.566;6.994;2024-03-07T14:30:19;7.45;;;3.30;;
48552;SDS011;34335;51.566;6.994;2024-03-07T14:32:54;8.70;;;3.75;;
48552;SDS011;34335;51.566;6.994;2024-03-07T14:35:33;8.10;;;4.22;;
48552;SDS011;34335;51.566;6.994;2024-03-07T14:40:41;9.23;;;3.60;;
48552;SDS011;34335;51.566;6.994;2024-03-07T14:43:09;5.40;;;3.58;;
48552;SDS011;34335;51.566;6.994;2024-03-07T14:45:38;9.02;;;4.80;;
48552;SDS011;34335;51.566;6.994;2024-03-07T14:48:05;5.45;;;2.95;;
48552;SDS011;34335;51.566;6.994;2024-03-07T14:50:35;6.65;;;3.72;;
48552;SDS011;34335;51.566;6.994;2024-03-07T14:53:02;4.85;;;2.97;;
48552;SDS011;34335;51.566;6.994;2024-03-07T14:55:29;9.15;;;4.50;;